createdAt,value
2023-03-15T00:00:39.740Z,9.39
2023-03-15T00:03:39.874Z,9.5
2023-03-15T00:06:39.762Z,9.5
2023-03-15T00:09:39.658Z,9.5
2023-03-15T00:11:39.769Z,9.56
2023-03-15T00:14:39.682Z,9.46
2023-03-15T00:17:39.641Z,9.45
2023-03-15T00:19:40.758Z,9.51
2023-03-15T00:22:39.658Z,9.64
2023-03-15T00:25:39.693Z,9.74
2023-03-15T00:28:39.668Z,9.78
2023-03-15T00:30:39.700Z,9.76
2023-03-15T00:33:39.665Z,9.68
2023-03-15T00:35:39.713Z,9.79
2023-03-15T00:38:39.687Z,9.91
2023-03-15T00:41:39.659Z,9.91
2023-03-15T00:43:39.695Z,9.88
2023-03-15T00:46:39.775Z,9.88
2023-03-15T00:49:39.697Z,9.97
2023-03-15T00:51:39.679Z,10.01
2023-03-15T00:54:39.694Z,10.04
2023-03-15T00:57:39.680Z,10.05
2023-03-15T01:00:39.678Z,10.03
2023-03-15T01:03:39.674Z,9.97
2023-03-15T01:05:39.685Z,9.91
2023-03-15T01:07:39.686Z,9.85
2023-03-15T01:09:39.677Z,9.72
2023-03-15T01:12:39.682Z,9.58
2023-03-15T01:14:42.832Z,9.43
2023-03-15T01:17:39.702Z,9.35
2023-03-15T01:20:39.664Z,9.34
2023-03-15T01:25:39.651Z,9.35
2023-03-15T01:28:39.666Z,9.31
2023-03-15T01:30:39.685Z,9.31
2023-03-15T01:33:39.672Z,9.32
2023-03-15T01:36:39.664Z,9.34
2023-03-15T01:39:39.680Z,9.27
2023-03-15T01:42:39.657Z,9.3
2023-03-15T01:45:39.711Z,9.28
2023-03-15T01:48:39.682Z,9.37
2023-03-15T01:50:39.658Z,9.5
2023-03-15T01:52:39.711Z,9.56
2023-03-15T01:55:39.661Z,9.47
2023-03-15T01:57:39.714Z,9.54
2023-03-15T02:00:39.699Z,9.6
2023-03-15T02:02:39.773Z,9.64
2023-03-15T02:05:39.684Z,9.59
2023-03-15T02:08:39.688Z,9.55
2023-03-15T02:11:39.677Z,9.58
2023-03-15T02:13:39.762Z,9.57
2023-03-15T02:16:39.696Z,9.55
2023-03-15T02:19:39.725Z,9.45
2023-03-15T02:22:39.680Z,9.46
2023-03-15T02:24:39.699Z,9.39
2023-03-15T02:27:39.786Z,9.43
2023-03-15T02:30:42.747Z,9.35
2023-03-15T02:33:39.657Z,9.35
2023-03-15T02:35:39.724Z,9.33
2023-03-15T02:38:39.656Z,9.34
2023-03-15T02:40:39.672Z,9.34
2023-03-15T02:43:39.703Z,9.29
2023-03-15T02:46:39.664Z,9.35
2023-03-15T02:49:39.668Z,9.35
2023-03-15T02:52:39.669Z,9.5
2023-03-15T02:55:39.718Z,9.62
2023-03-15T02:58:39.666Z,9.59
2023-03-15T03:00:39.752Z,9.6
2023-03-15T03:03:39.717Z,9.64
2023-03-15T03:06:39.717Z,9.57
2023-03-15T03:08:39.727Z,9.46
2023-03-15T03:10:39.760Z,9.43
2023-03-15T03:13:39.728Z,9.47
2023-03-15T03:16:39.716Z,9.5
2023-03-15T03:18:39.686Z,9.54
2023-03-15T03:20:39.719Z,9.54
2023-03-15T03:22:39.734Z,9.55
2023-03-15T03:25:39.705Z,9.6
2023-03-15T03:27:39.655Z,9.68
2023-03-15T03:29:39.685Z,9.71
2023-03-15T03:31:39.715Z,9.72
2023-03-15T03:34:39.721Z,9.68
2023-03-15T03:37:39.719Z,9.71
2023-03-15T03:39:39.715Z,9.72
2023-03-15T03:42:39.661Z,9.68
2023-03-15T03:44:39.796Z,9.66
2023-03-15T03:47:39.676Z,9.64
2023-03-15T03:50:39.652Z,9.55
2023-03-15T03:52:39.672Z,9.46
2023-03-15T03:54:39.668Z,9.38
2023-03-15T03:57:39.653Z,9.37
2023-03-15T03:59:39.686Z,9.41
2023-03-15T04:02:39.760Z,9.42
2023-03-15T04:05:39.650Z,9.43
2023-03-15T04:07:39.682Z,9.45
2023-03-15T04:09:39.691Z,9.38
2023-03-15T04:12:39.753Z,9.32
2023-03-15T04:14:39.667Z,9.29
2023-03-15T04:17:39.713Z,9.12
2023-03-15T04:19:39.666Z,9.12
2023-03-15T04:22:39.694Z,9.21
2023-03-15T04:24:39.715Z,9.22
2023-03-15T04:27:39.639Z,9.31
2023-03-15T04:29:39.664Z,9.25
2023-03-15T04:32:39.705Z,9.18
2023-03-15T04:34:39.688Z,9.18
2023-03-15T04:37:39.682Z,9.26
2023-03-15T04:41:39.685Z,9.31
2023-03-15T04:44:39.654Z,9.32
2023-03-15T04:46:39.702Z,9.31
2023-03-15T04:48:39.685Z,9.33
2023-03-15T04:51:39.630Z,9.46
2023-03-15T04:53:39.709Z,9.35
2023-03-15T04:56:39.667Z,9.38
2023-03-15T04:58:39.702Z,9.33
2023-03-15T05:00:39.660Z,9.33
2023-03-15T05:02:39.650Z,9.33
2023-03-15T05:05:39.707Z,9.29
2023-03-15T05:08:39.652Z,9.25
2023-03-15T05:11:39.694Z,9.16
2023-03-15T05:13:39.697Z,9.13
2023-03-15T05:16:40.295Z,9.1
2023-03-15T05:19:39.663Z,9.16
2023-03-15T05:21:39.683Z,9.21
2023-03-15T05:24:39.748Z,9.2
2023-03-15T05:26:39.725Z,9.21
2023-03-15T05:29:39.666Z,9.22
2023-03-15T05:31:39.734Z,9.22
2023-03-15T05:34:39.699Z,9.39
2023-03-15T05:36:39.680Z,9.43
2023-03-15T05:38:39.709Z,9.49
2023-03-15T05:40:39.778Z,9.47
2023-03-15T05:43:39.685Z,9.49
2023-03-15T05:46:39.710Z,9.49
2023-03-15T05:48:39.740Z,9.46
2023-03-15T05:51:39.727Z,9.47
2023-03-15T05:53:39.714Z,9.42
2023-03-15T05:56:39.730Z,9.39
2023-03-15T05:59:39.727Z,9.51
2023-03-15T06:02:39.664Z,9.53
2023-03-15T06:04:39.668Z,9.55
2023-03-15T06:06:39.755Z,9.6
2023-03-15T06:09:39.640Z,9.7
2023-03-15T06:12:39.675Z,9.67
2023-03-15T06:15:39.722Z,9.68
2023-03-15T06:17:39.723Z,9.72
2023-03-15T06:20:39.666Z,9.68
2023-03-15T06:22:39.718Z,9.68
2023-03-15T06:25:39.730Z,9.67
2023-03-15T06:28:39.671Z,9.62
2023-03-15T06:30:39.704Z,9.57
2023-03-15T06:33:39.719Z,9.46
2023-03-15T06:36:39.652Z,9.39
2023-03-15T06:38:39.662Z,9.41
2023-03-15T06:41:39.730Z,9.57
2023-03-15T06:44:39.636Z,9.78
2023-03-15T06:46:39.755Z,9.72
2023-03-15T06:49:39.653Z,9.79
2023-03-15T06:51:39.690Z,9.88
2023-03-15T06:53:39.675Z,9.89
2023-03-15T06:55:39.684Z,9.91
2023-03-15T06:58:39.749Z,9.92
2023-03-15T07:01:39.710Z,9.91
2023-03-15T07:03:39.680Z,9.82
2023-03-15T07:06:37.739Z,9.64
2023-03-15T07:08:38.143Z,9.56
2023-03-15T07:11:38.306Z,9.45
2023-03-15T07:14:37.752Z,9.59
2023-03-15T07:17:37.692Z,9.78
2023-03-15T07:19:46.727Z,9.74
2023-03-15T07:21:38.050Z,9.63
2023-03-15T07:23:38.349Z,9.66
2023-03-15T07:26:38.444Z,9.79
2023-03-15T07:29:37.712Z,9.96
2023-03-15T07:31:38.374Z,9.99
2023-03-15T07:34:37.849Z,9.81
2023-03-15T07:37:39.655Z,9.64
2023-03-15T07:39:38.320Z,9.64
2023-03-15T07:42:37.730Z,9.66
2023-03-15T07:44:38.205Z,9.71
2023-03-15T07:47:37.721Z,9.66
2023-03-15T07:49:38.024Z,9.67
2023-03-15T07:52:37.700Z,9.84
2023-03-15T07:54:37.754Z,9.91
2023-03-15T07:57:37.713Z,9.89
2023-03-15T08:00:38.159Z,9.91
2023-03-15T08:03:38.666Z,9.81
2023-03-15T08:06:37.833Z,9.8
2023-03-15T08:09:37.671Z,9.89
2023-03-15T08:12:37.699Z,9.97
2023-03-15T08:15:37.740Z,10.01
2023-03-15T08:19:38.395Z,9.97
2023-03-15T08:22:38.549Z,9.85
2023-03-15T08:25:38.317Z,9.75
2023-03-15T08:28:38.023Z,9.95
2023-03-15T08:31:37.725Z,9.89
2023-03-15T08:33:38.344Z,9.88
2023-03-15T08:36:37.719Z,10.03
2023-03-15T08:38:37.687Z,9.96
2023-03-15T08:40:38.875Z,9.93
2023-03-15T08:42:37.716Z,10.06
2023-03-15T08:44:38.299Z,10.1
2023-03-15T08:47:37.705Z,10.17
2023-03-15T08:49:38.124Z,10.12
2023-03-15T08:52:39.878Z,10.06
2023-03-15T08:54:41.445Z,10.07
2023-03-15T08:56:41.429Z,10.03
2023-03-15T08:59:41.656Z,9.97
2023-03-15T09:02:41.466Z,9.78
2023-03-15T09:04:41.488Z,9.78
2023-03-15T09:07:41.431Z,9.75
2023-03-15T09:09:41.561Z,9.77
2023-03-15T09:12:41.445Z,9.67
2023-03-15T09:14:41.568Z,9.72
2023-03-15T09:16:41.511Z,9.7
2023-03-15T09:19:41.495Z,9.71
2023-03-15T09:22:41.463Z,9.66
2023-03-15T09:25:41.404Z,9.59
2023-03-15T09:27:41.410Z,9.67
2023-03-15T09:29:41.453Z,9.77
2023-03-15T09:31:41.472Z,9.77
2023-03-15T09:34:42.185Z,9.76
2023-03-15T09:37:41.484Z,9.78
2023-03-15T09:40:41.512Z,9.81
2023-03-15T09:42:41.467Z,9.83
2023-03-15T09:44:41.488Z,9.85
2023-03-15T09:47:41.443Z,9.97
2023-03-15T09:49:41.454Z,9.93
2023-03-15T09:51:41.540Z,9.84
2023-03-15T09:54:41.429Z,9.82
2023-03-15T09:57:41.469Z,9.85
2023-03-15T09:59:42.932Z,9.89
2023-03-15T10:02:41.599Z,9.89
2023-03-15T10:04:41.458Z,9.88
2023-03-15T10:07:41.538Z,9.93
2023-03-15T10:09:41.483Z,9.96
2023-03-15T10:12:41.531Z,9.97
2023-03-15T10:15:41.451Z,9.97
2023-03-15T10:17:41.447Z,9.89
2023-03-15T10:19:41.466Z,9.85
2023-03-15T10:22:41.555Z,9.92
2023-03-15T10:24:41.472Z,9.93
2023-03-15T10:27:41.471Z,9.91
2023-03-15T10:30:41.460Z,10.01
2023-03-15T10:32:41.603Z,10.1
2023-03-15T10:34:41.488Z,10.21
2023-03-15T10:37:41.606Z,10.22
2023-03-15T10:40:41.415Z,10.28
2023-03-15T10:42:41.544Z,10.33
2023-03-15T10:45:41.453Z,10.42
2023-03-15T10:47:45.184Z,10.45
2023-03-15T10:50:41.431Z,10.46
2023-03-15T10:52:41.604Z,10.44
2023-03-15T10:55:41.495Z,10.38
2023-03-15T10:58:41.436Z,10.31
2023-03-15T11:01:41.570Z,10.26
2023-03-15T11:03:41.629Z,10.18
2023-03-15T11:06:41.463Z,10.17
2023-03-15T11:09:41.434Z,10.2
2023-03-15T11:11:41.425Z,10.22
2023-03-15T11:13:41.508Z,10.27
2023-03-15T11:15:41.440Z,10.31
2023-03-15T11:18:41.419Z,10.45
2023-03-15T11:21:41.438Z,10.52
2023-03-15T11:23:41.506Z,10.58
2023-03-15T11:25:45.264Z,10.69
2023-03-15T11:28:41.493Z,10.83
2023-03-15T11:31:41.469Z,10.89
2023-03-15T11:33:41.670Z,10.96
2023-03-15T11:36:41.443Z,11.08
2023-03-15T11:38:41.469Z,11.09
2023-03-15T11:41:41.500Z,11.12
2023-03-15T11:44:41.523Z,11.09
2023-03-15T11:46:41.454Z,11.09
2023-03-15T11:49:41.448Z,11.08
2023-03-15T11:51:41.518Z,11.04
2023-03-15T11:54:41.443Z,11
2023-03-15T11:56:41.477Z,10.99
2023-03-15T11:59:41.543Z,10.93
2023-03-15T12:02:41.504Z,10.99
2023-03-15T12:05:41.494Z,11.16
2023-03-15T12:07:41.531Z,11.29
2023-03-15T12:10:41.461Z,11.54
2023-03-15T12:13:41.456Z,11.88
2023-03-15T12:15:41.511Z,12.12
2023-03-15T12:17:41.635Z,12.3
2023-03-15T12:20:41.495Z,12.49
2023-03-15T12:23:41.503Z,12.68
2023-03-15T12:25:54.928Z,12.86
2023-03-15T12:28:41.525Z,13.12
2023-03-15T12:30:41.574Z,13.2
2023-03-15T12:32:41.591Z,13.29
2023-03-15T12:35:41.710Z,13.43
2023-03-15T12:37:41.467Z,13.52
2023-03-15T12:40:41.508Z,13.72
2023-03-15T12:43:41.498Z,13.86
2023-03-15T12:46:41.422Z,14
2023-03-15T12:48:41.414Z,14.1
2023-03-15T12:50:41.462Z,14.19
2023-03-15T12:52:41.535Z,14.21
2023-03-15T12:55:41.604Z,14.34
2023-03-15T12:58:41.508Z,14.33
2023-03-15T13:00:41.680Z,14.39
2023-03-15T13:03:41.566Z,14.6
2023-03-15T13:06:41.502Z,14.83
2023-03-15T13:08:41.541Z,14.95
2023-03-15T13:11:41.494Z,15.09
2023-03-15T13:13:41.473Z,15.21
2023-03-15T13:15:41.469Z,15.31
2023-03-15T13:18:41.458Z,15.51
2023-03-15T13:20:41.587Z,15.59
2023-03-15T13:23:42.603Z,15.71
2023-03-15T13:26:41.489Z,15.88
2023-03-15T13:28:41.751Z,15.99
2023-03-15T13:31:41.551Z,16.18
2023-03-15T13:33:42.461Z,16.23
2023-03-15T13:35:41.526Z,16.32
2023-03-15T13:37:41.507Z,16.39
2023-03-15T13:40:41.484Z,16.53
2023-03-15T13:42:41.645Z,16.61
2023-03-15T13:45:41.441Z,16.73
2023-03-15T13:47:41.722Z,16.82
2023-03-15T13:50:41.548Z,16.89
2023-03-15T13:53:49.339Z,17.03
2023-03-15T13:55:41.549Z,17.11
2023-03-15T13:57:41.638Z,17.19
2023-03-15T13:59:41.647Z,17.27
2023-03-15T14:02:44.669Z,17.34
2023-03-15T14:04:41.492Z,17.44
2023-03-15T14:06:41.504Z,17.51
2023-03-15T14:08:41.638Z,17.57
2023-03-15T14:12:41.525Z,17.56
2023-03-15T14:15:41.511Z,17.67
2023-03-15T14:17:41.546Z,17.75
2023-03-15T14:20:41.496Z,17.86
2023-03-15T14:22:41.630Z,18
2023-03-15T14:25:41.558Z,18.12
2023-03-15T14:28:41.640Z,18.23
2023-03-15T14:33:41.567Z,18.28
2023-03-15T14:36:41.534Z,18.36
2023-03-15T14:38:41.550Z,18.34
2023-03-15T14:41:42.796Z,18.34
2023-03-15T14:44:41.503Z,18.27
2023-03-15T14:46:41.532Z,18.29
2023-03-15T14:49:41.495Z,18.32
2023-03-15T14:52:41.430Z,18.37
2023-03-15T14:54:41.481Z,18.37
2023-03-15T14:56:48.667Z,18.37
2023-03-15T14:59:41.464Z,18.39
2023-03-15T15:01:42.597Z,18.36
2023-03-15T15:04:41.472Z,18.4
2023-03-15T15:06:41.532Z,18.37
2023-03-15T15:09:41.691Z,18.41
2023-03-15T15:11:41.560Z,18.4
2023-03-15T15:14:41.546Z,18.46
2023-03-15T15:16:41.492Z,18.5
2023-03-15T15:19:45.102Z,18.6
2023-03-15T15:22:41.510Z,18.45
2023-03-15T15:24:41.521Z,18.42
2023-03-15T15:26:42.780Z,18.35
2023-03-15T15:29:41.508Z,18.29
2023-03-15T15:32:41.544Z,18.19
2023-03-15T15:34:41.508Z,18.19
2023-03-15T15:37:41.525Z,18.03
2023-03-15T15:40:41.464Z,17.84
2023-03-15T15:42:41.500Z,17.73
2023-03-15T15:45:41.483Z,17.54
2023-03-15T15:47:41.511Z,17.45
2023-03-15T15:50:41.519Z,17.36
2023-03-15T15:52:41.611Z,17.31
2023-03-15T15:55:41.517Z,17.35
2023-03-15T15:57:41.512Z,17.35
2023-03-15T16:00:41.442Z,17.31
2023-03-15T16:02:41.525Z,17.29
2023-03-15T16:05:41.473Z,17.18
2023-03-15T16:08:41.466Z,17.11
2023-03-15T16:10:41.531Z,17.08
2023-03-15T16:13:41.482Z,17.1
2023-03-15T16:15:41.562Z,17.11
2023-03-15T16:18:41.508Z,17.02
2023-03-15T16:21:41.469Z,16.89
2023-03-15T16:23:41.594Z,16.87
2023-03-15T16:26:41.516Z,16.81
2023-03-15T16:29:41.502Z,16.7
2023-03-15T16:31:41.509Z,16.59
2023-03-15T16:34:41.549Z,16.4
2023-03-15T16:37:41.498Z,16.2
2023-03-15T16:40:41.517Z,15.99
2023-03-15T16:42:41.541Z,15.85
2023-03-15T16:45:41.501Z,15.78
2023-03-15T16:47:41.514Z,15.73
2023-03-15T16:50:41.565Z,15.55
2023-03-15T16:53:41.484Z,15.34
2023-03-15T16:55:41.585Z,15.24
2023-03-15T16:58:41.524Z,15.15
2023-03-15T17:01:41.539Z,15.01
2023-03-15T17:03:41.637Z,14.96
2023-03-15T17:06:41.508Z,14.91
2023-03-15T17:08:41.618Z,14.87
2023-03-15T17:11:41.553Z,14.81
2023-03-15T17:13:41.645Z,14.77
2023-03-15T17:16:41.591Z,14.72
2023-03-15T17:19:41.520Z,14.66
2023-03-15T17:21:41.547Z,14.58
2023-03-15T17:23:41.600Z,14.52
2023-03-15T17:26:41.522Z,14.42
2023-03-15T17:29:41.645Z,14.15
2023-03-15T17:32:41.524Z,14.03
2023-03-15T17:34:41.580Z,13.96
2023-03-15T17:37:41.497Z,13.89
2023-03-15T17:39:41.535Z,13.79
2023-03-15T17:42:41.521Z,13.69
2023-03-15T17:45:41.749Z,13.63
2023-03-15T17:47:41.529Z,13.59
2023-03-15T17:50:42.503Z,13.63
2023-03-15T17:52:41.494Z,13.65
2023-03-15T17:55:41.512Z,13.64
2023-03-15T17:58:41.480Z,13.56
2023-03-15T18:00:41.590Z,13.51
2023-03-15T18:03:41.529Z,13.37
2023-03-15T18:05:41.532Z,13.22
2023-03-15T18:07:52.292Z,13.14
2023-03-15T18:10:41.534Z,13.06
2023-03-15T18:13:41.503Z,13
2023-03-15T18:15:41.626Z,12.97
2023-03-15T18:18:41.475Z,12.98
2023-03-15T18:20:41.602Z,12.93
2023-03-15T18:23:41.488Z,12.87
2023-03-15T18:25:41.911Z,12.89
2023-03-15T18:29:41.472Z,12.78
2023-03-15T18:31:41.577Z,12.8
2023-03-15T18:33:41.554Z,12.78
2023-03-15T18:36:41.550Z,12.81
2023-03-15T18:39:41.495Z,12.88
2023-03-15T18:41:41.524Z,12.88
2023-03-15T18:44:41.466Z,12.87
2023-03-15T18:46:41.800Z,12.9
2023-03-15T18:49:41.479Z,12.84
2023-03-15T18:52:41.620Z,12.67
2023-03-15T18:54:41.504Z,12.53
2023-03-15T18:57:41.657Z,12.41
2023-03-15T19:00:41.471Z,12.33
2023-03-15T19:02:41.609Z,12.24
2023-03-15T19:04:41.471Z,12.25
2023-03-15T19:07:41.624Z,12.15
2023-03-15T19:10:41.534Z,12.09
2023-03-15T19:12:41.680Z,12.03
2023-03-15T19:15:41.484Z,12
2023-03-15T19:18:41.661Z,11.91
2023-03-15T19:20:41.559Z,11.82
2023-03-15T19:23:49.748Z,11.8
2023-03-15T19:25:41.552Z,11.7
2023-03-15T19:28:41.785Z,11.66
2023-03-15T19:30:41.646Z,11.58
2023-03-15T19:33:41.605Z,11.58
2023-03-15T19:36:41.521Z,11.56
2023-03-15T19:39:41.672Z,11.45
2023-03-15T19:42:41.584Z,11.41
2023-03-15T19:45:41.500Z,11.33
2023-03-15T19:47:41.508Z,11.35
2023-03-15T19:49:41.519Z,11.27
2023-03-15T19:52:41.483Z,11.2
2023-03-15T19:54:41.475Z,11.2
2023-03-15T19:56:41.480Z,11.13
2023-03-15T19:58:41.553Z,11.09
2023-03-15T20:01:41.586Z,11.05
2023-03-15T20:04:41.816Z,11.02
2023-03-15T20:07:41.490Z,11.03
2023-03-15T20:09:41.579Z,10.94
2023-03-15T20:12:41.500Z,10.61
2023-03-15T20:14:41.868Z,10.69
2023-03-15T20:17:41.551Z,10.76
2023-03-15T20:19:41.529Z,10.74
2023-03-15T20:21:41.550Z,10.82
2023-03-15T20:24:41.726Z,10.8
2023-03-15T20:26:41.513Z,10.82
2023-03-15T20:28:41.616Z,10.78
2023-03-15T20:31:41.624Z,10.62
2023-03-15T20:33:41.563Z,10.55
2023-03-15T20:36:41.510Z,10.55
2023-03-15T20:39:41.608Z,10.59
2023-03-15T20:41:41.540Z,10.63
2023-03-15T20:43:41.537Z,10.64
2023-03-15T20:45:41.708Z,10.66
2023-03-15T20:48:41.596Z,10.67
2023-03-15T20:50:41.799Z,10.59
2023-03-15T20:52:44.616Z,10.51
2023-03-15T20:57:41.538Z,10.55
2023-03-15T20:59:41.533Z,10.51
2023-03-15T21:02:41.519Z,10.33
2023-03-15T21:05:41.528Z,10.25
2023-03-15T21:08:41.503Z,10.28
2023-03-15T21:10:41.512Z,10.31
2023-03-15T21:12:41.511Z,10.25
2023-03-15T21:15:41.468Z,10.14
2023-03-15T21:17:41.515Z,10.14
2023-03-15T21:20:41.501Z,10.09
2023-03-15T21:22:41.552Z,10.07
2023-03-15T21:25:41.542Z,10.04
2023-03-15T21:28:41.537Z,10.02
2023-03-15T21:31:41.528Z,9.96
2023-03-15T21:33:41.526Z,9.89
2023-03-15T21:36:41.507Z,9.87
2023-03-15T21:39:41.511Z,9.96
2023-03-15T21:41:41.540Z,9.89
2023-03-15T21:44:41.507Z,9.79
2023-03-15T21:47:41.543Z,9.71
2023-03-15T21:50:41.479Z,9.67
2023-03-15T21:52:41.757Z,9.59
2023-03-15T21:55:41.512Z,9.58
2023-03-15T21:58:41.558Z,9.63
2023-03-15T22:01:41.499Z,9.62
2023-03-15T22:04:41.587Z,9.53
2023-03-15T22:07:41.515Z,9.58
2023-03-15T22:09:41.503Z,9.52
2023-03-15T22:12:41.540Z,9.47
2023-03-15T22:15:41.496Z,9.39
2023-03-15T22:18:41.469Z,9.39
2023-03-15T22:20:41.482Z,9.43
2023-03-15T22:23:41.476Z,9.26
2023-03-15T22:25:41.528Z,9.28
2023-03-15T22:28:41.488Z,9.28
2023-03-15T22:31:09.668Z,9.18
2023-03-15T22:33:41.489Z,9.18
2023-03-15T22:36:41.536Z,9.09
2023-03-15T22:39:41.513Z,9.14
2023-03-15T22:42:41.586Z,9.09
2023-03-15T22:45:41.519Z,9.09
2023-03-15T22:47:41.592Z,9.1
2023-03-15T22:50:41.493Z,9.09
2023-03-15T22:52:41.454Z,9.07
2023-03-15T22:54:41.490Z,9.07
2023-03-15T22:56:41.522Z,9.1
2023-03-15T22:59:41.509Z,9.13
2023-03-15T23:01:41.692Z,9.1
2023-03-15T23:04:41.554Z,9.1
2023-03-15T23:07:41.542Z,9.1
2023-03-15T23:10:41.484Z,9.18
2023-03-15T23:12:41.611Z,9.14
2023-03-15T23:15:41.518Z,9.26
2023-03-15T23:17:41.485Z,9.37
2023-03-15T23:19:41.530Z,9.33
2023-03-15T23:21:41.505Z,9.27
2023-03-15T23:24:41.519Z,9.25
2023-03-15T23:27:41.477Z,9.26
2023-03-15T23:30:41.480Z,9.22
2023-03-15T23:32:41.518Z,9.24
2023-03-15T23:35:41.511Z,9.34
2023-03-15T23:37:41.489Z,9.37
2023-03-15T23:39:41.569Z,9.39
2023-03-15T23:42:41.483Z,9.39
2023-03-15T23:44:41.512Z,9.42
2023-03-15T23:47:41.524Z,9.35
2023-03-15T23:50:41.533Z,9.32
2023-03-15T23:52:44.694Z,9.38
2023-03-15T23:55:41.516Z,9.47
2023-03-15T23:58:41.493Z,9.42
